Time;durP1;ratioP1;P1;durP2;ratioP2;P2;SDS_P1;SDS_P2;PMS_P1;PMS_P2;Temp;Humidity;BMP_temperature;BMP_pressure;BME280_temperature;BME280_humidity;BME280_pressure;Samples;Min_cycle;Max_cycle;Signal;HPM_P1;HPM_P2
2021/05/24 00:01:40;;;;;;;0.10;0.10;;;;;;;;;;5071846;28;20447;-84
2021/05/24 00:04:06;;;;;;;0.10;0.10;;;;;;;;;;5071499;28;20040;-83
2021/05/24 00:06:32;;;;;;;0.10;0.10;;;;;;;;;;5054861;28;20123;-83
2021/05/24 00:08:58;;;;;;;0.10;0.10;;;;;;;;;;5071451;28;20036;-84
2021/05/24 00:11:24;;;;;;;0.10;0.10;;;;;;;;;;5054131;28;20488;-84
2021/05/24 00:13:56;;;;;;;0.22;0.22;;;;;;;;;;5054918;28;20098;-82
2021/05/24 00:16:23;;;;;;;0.10;0.10;;;;;;;;;;5055197;28;20036;-83
2021/05/24 00:18:53;;;;;;;0.17;0.17;;;;;;;;;;5071313;28;20064;-83
2021/05/24 00:21:19;;;;;;;0.10;0.10;;;;;;;;;;5072490;28;20483;-82
2021/05/24 00:23:45;;;;;;;0.10;0.10;;;;;;;;;;5054655;28;20052;-83
2021/05/24 00:26:11;;;;;;;0.15;0.15;;;;;;;;;;5071225;28;20051;-82
2021/05/24 00:28:38;;;;;;;0.10;0.10;;;;;;;;;;5072358;28;20091;-84
2021/05/24 00:31:04;;;;;;;0.10;0.10;;;;;;;;;;5071201;28;20115;-83
2021/05/24 00:33:30;;;;;;;0.10;0.10;;;;;;;;;;5072351;28;20093;-83
2021/05/24 00:35:56;;;;;;;0.10;0.10;;;;;;;;;;5071116;28;20056;-84
2021/05/24 00:38:22;;;;;;;0.10;0.10;;;;;;;;;;5070839;28;20373;-83
2021/05/24 00:40:48;;;;;;;0.10;0.10;;;;;;;;;;5070969;28;20044;-83
2021/05/24 00:43:14;;;;;;;0.10;0.10;;;;;;;;;;5054623;28;20064;-83
2021/05/24 00:45:40;;;;;;;0.10;0.10;;;;;;;;;;5072104;28;20033;-84
2021/05/24 00:48:07;;;;;;;0.10;0.10;;;;;;;;;;5070879;28;20380;-83
2021/05/24 00:50:33;;;;;;;0.10;0.10;;;;;;;;;;5070957;28;20037;-83
2021/05/24 00:52:59;;;;;;;0.10;0.10;;;;;;;;;;5072096;28;20037;-83
2021/05/24 00:55:25;;;;;;;0.10;0.10;;;;;;;;;;5054147;28;20514;-82
2021/05/24 00:57:51;;;;;;;0.20;0.20;;;;;;;;;;5070800;28;20037;-83
2021/05/24 01:00:22;;;;;;;0.10;0.10;;;;;;;;;;5072040;28;20043;-81
2021/05/24 01:02:48;;;;;;;0.20;0.20;;;;;;;;;;5070865;28;20040;-83
2021/05/24 01:05:14;;;;;;;0.10;0.10;;;;;;;;;;5054329;28;20075;-83
2021/05/24 01:07:40;;;;;;;0.10;0.10;;;;;;;;;;5070727;28;20044;-83
2021/05/24 01:10:06;;;;;;;0.10;0.10;;;;;;;;;;5071859;28;20039;-82
2021/05/24 01:12:32;;;;;;;0.10;0.10;;;;;;;;;;5072038;28;20380;-83
2021/05/24 01:15:01;;;;;;;0.10;0.10;;;;;;;;;;5070752;28;20463;-83
2021/05/24 01:17:27;;;;;;;0.10;0.10;;;;;;;;;;5054006;28;20450;-82
2021/05/24 01:19:53;;;;;;;0.20;0.20;;;;;;;;;;5070702;28;20036;-82
2021/05/24 01:22:21;;;;;;;0.10;0.10;;;;;;;;;;5073413;28;20324;-82
2021/05/24 01:24:48;;;;;;;0.10;0.10;;;;;;;;;;5058155;28;20048;-83
2021/05/24 01:27:14;;;;;;;0.20;0.20;;;;;;;;;;5074583;28;20043;-83
2021/05/24 01:29:40;;;;;;;0.10;0.10;;;;;;;;;;5074471;28;20036;-83
2021/05/24 01:32:06;;;;;;;0.10;0.10;;;;;;;;;;5074404;28;20037;-83
2021/05/24 01:34:32;;;;;;;0.10;0.10;;;;;;;;;;5057845;28;20047;-83
2021/05/24 01:36:58;;;;;;;0.10;0.10;;;;;;;;;;5074201;28;20392;-83
2021/05/24 01:39:24;;;;;;;0.10;0.10;;;;;;;;;;5074193;28;20053;-84
2021/05/24 01:41:50;;;;;;;0.10;0.10;;;;;;;;;;5074360;28;20032;-83
2021/05/24 01:44:26;;;;;;;0.10;0.10;;;;;;;;;;5074404;28;20052;-82
2021/05/24 01:46:53;;;;;;;0.17;0.17;;;;;;;;;;5057776;28;20111;-83
2021/05/24 01:49:19;;;;;;;0.10;0.10;;;;;;;;;;5058026;28;20036;-83
2021/05/24 01:51:45;;;;;;;0.10;0.10;;;;;;;;;;5074011;28;20044;-83
2021/05/24 01:54:11;;;;;;;0.10;0.10;;;;;;;;;;5074060;28;20131;-83
2021/05/24 01:56:37;;;;;;;0.10;0.10;;;;;;;;;;5073900;28;20137;-83
2021/05/24 01:59:03;;;;;;;0.10;0.10;;;;;;;;;;5057281;28;20480;-83
2021/05/24 02:01:29;;;;;;;0.10;0.10;;;;;;;;;;5075040;28;20162;-83
2021/05/24 02:03:58;;;;;;;0.10;0.10;;;;;;;;;;5073726;28;20072;-81
2021/05/24 02:06:25;;;;;;;0.10;0.10;;;;;;;;;;5073716;28;20052;-82
2021/05/24 02:08:51;;;;;;;0.13;0.13;;;;;;;;;;5073861;28;20033;-81
2021/05/24 02:11:17;;;;;;;0.10;0.10;;;;;;;;;;5075065;28;20032;-82
2021/05/24 02:13:46;;;;;;;0.10;0.10;;;;;;;;;;5074825;28;20032;-82
2021/05/24 02:16:15;;;;;;;0.10;0.10;;;;;;;;;;5074843;28;20045;-83
2021/05/24 02:18:56;;;;;;;0.10;0.10;;;;;;;;;;5073464;28;20498;-84
2021/05/24 02:21:22;;;;;;;0.10;0.10;;;;;;;;;;5074662;28;20079;-83
2021/05/24 02:23:48;;;;;;;0.10;0.10;;;;;;;;;;5073528;28;20521;-83
2021/05/24 02:26:14;;;;;;;0.10;0.10;;;;;;;;;;5073487;28;20391;-83
2021/05/24 02:28:40;;;;;;;0.10;0.10;;;;;;;;;;5073448;28;20511;-83
2021/05/24 02:31:06;;;;;;;0.10;0.10;;;;;;;;;;5056654;28;20068;-83
2021/05/24 02:33:32;;;;;;;0.10;0.10;;;;;;;;;;5073669;28;20075;-84
2021/05/24 02:35:59;;;;;;;0.20;0.20;;;;;;;;;;5073281;28;20039;-83
2021/05/24 02:38:26;;;;;;;0.10;0.10;;;;;;;;;;5039840;28;20059;-83
2021/05/24 02:40:52;;;;;;;0.20;0.20;;;;;;;;;;5073326;28;20049;-84
2021/05/24 02:43:18;;;;;;;0.10;0.10;;;;;;;;;;5056486;28;20029;-84
2021/05/24 02:45:45;;;;;;;0.10;0.10;;;;;;;;;;5056324;28;20123;-83
2021/05/24 02:48:11;;;;;;;0.10;0.10;;;;;;;;;;5056565;28;20040;-83
2021/05/24 02:50:37;;;;;;;0.10;0.10;;;;;;;;;;5074319;28;20476;-83
2021/05/24 02:53:03;;;;;;;0.10;0.10;;;;;;;;;;5074112;28;20043;-82
2021/05/24 02:55:29;;;;;;;0.10;0.10;;;;;;;;;;5073033;28;20543;-82
2021/05/24 02:57:55;;;;;;;0.10;0.10;;;;;;;;;;5072891;28;20117;-82
2021/05/24 03:00:22;;;;;;;0.10;0.10;;;;;;;;;;5073983;28;20159;-83
2021/05/24 03:02:49;;;;;;;0.10;0.10;;;;;;;;;;5072800;28;20047;-82
2021/05/24 03:05:16;;;;;;;0.25;0.25;;;;;;;;;;5072633;28;20479;-83
2021/05/24 03:07:42;;;;;;;0.10;0.10;;;;;;;;;;5073721;28;20073;-83
2021/05/24 03:10:08;;;;;;;0.10;0.10;;;;;;;;;;5073800;28;20107;-83
2021/05/24 03:12:34;;;;;;;0.10;0.10;;;;;;;;;;5072572;28;20036;-84
2021/05/24 03:15:00;;;;;;;0.10;0.10;;;;;;;;;;5055805;28;20074;-83
2021/05/24 03:17:28;;;;;;;0.10;0.10;;;;;;;;;;5073600;28;20089;-83
2021/05/24 03:19:54;;;;;;;0.10;0.10;;;;;;;;;;5073840;28;20037;-83
2021/05/24 03:22:20;;;;;;;0.10;0.10;;;;;;;;;;5072325;28;20398;-83
2021/05/24 03:24:46;;;;;;;0.10;0.10;;;;;;;;;;5073425;28;20037;-84
2021/05/24 03:27:12;;;;;;;0.10;0.10;;;;;;;;;;5073385;28;20032;-84
2021/05/24 03:29:38;;;;;;;0.10;0.10;;;;;;;;;;5055537;28;20051;-83
2021/05/24 03:32:04;;;;;;;0.10;0.10;;;;;;;;;;5055473;28;20044;-83
2021/05/24 03:34:30;;;;;;;0.10;0.10;;;;;;;;;;5072163;28;20044;-83
2021/05/24 03:36:56;;;;;;;0.10;0.10;;;;;;;;;;5072076;28;20040;-84
2021/05/24 03:39:22;;;;;;;0.10;0.10;;;;;;;;;;5072090;28;20053;-84
2021/05/24 03:41:48;;;;;;;0.10;0.10;;;;;;;;;;5071949;28;20044;-84
2021/05/24 03:44:14;;;;;;;0.10;0.10;;;;;;;;;;5072967;28;20045;-84
2021/05/24 03:46:40;;;;;;;0.10;0.10;;;;;;;;;;5070846;28;20395;-84
2021/05/24 03:49:06;;;;;;;0.10;0.10;;;;;;;;;;5073072;28;20500;-84
2021/05/24 03:51:32;;;;;;;0.10;0.10;;;;;;;;;;5055239;28;20083;-84
2021/05/24 03:53:59;;;;;;;0.10;0.10;;;;;;;;;;5071804;28;20037;-83
2021/05/24 03:56:25;;;;;;;0.10;0.10;;;;;;;;;;5071764;28;20444;-84
2021/05/24 03:58:51;;;;;;;0.10;0.10;;;;;;;;;;5071547;28;20132;-83
2021/05/24 04:01:17;;;;;;;0.10;0.10;;;;;;;;;;5071525;28;20472;-83
2021/05/24 04:03:44;;;;;;;0.20;0.20;;;;;;;;;;5054874;28;20036;-83
2021/05/24 04:06:14;;;;;;;0.10;0.10;;;;;;;;;;5054924;28;20119;-83
2021/05/24 04:08:43;;;;;;;0.10;0.10;;;;;;;;;;5055454;28;20048;-84
2021/05/24 04:11:10;;;;;;;0.10;0.10;;;;;;;;;;5071292;28;20044;-84
2021/05/24 04:13:36;;;;;;;0.10;0.10;;;;;;;;;;5071359;28;20037;-84
2021/05/24 04:16:02;;;;;;;0.10;0.10;;;;;;;;;;5054772;28;20032;-84
2021/05/24 04:18:32;;;;;;;0.10;0.10;;;;;;;;;;5071248;28;20357;-84
2021/05/24 04:20:59;;;;;;;0.10;0.10;;;;;;;;;;5071470;28;20040;-83
2021/05/24 04:23:25;;;;;;;0.10;0.10;;;;;;;;;;5071760;28;20518;-83
2021/05/24 04:25:51;;;;;;;0.10;0.10;;;;;;;;;;5071043;28;20029;-84
2021/05/24 04:28:17;;;;;;;0.10;0.10;;;;;;;;;;5071122;28;20040;-84
2021/05/24 04:30:44;;;;;;;0.10;0.10;;;;;;;;;;5054544;28;20391;-83
2021/05/24 04:33:10;;;;;;;0.10;0.10;;;;;;;;;;5054678;28;20509;-84
2021/05/24 04:35:36;;;;;;;0.10;0.10;;;;;;;;;;5072359;28;20040;-84
2021/05/24 04:38:03;;;;;;;0.10;0.10;;;;;;;;;;5072053;28;20044;-84
2021/05/24 04:40:29;;;;;;;0.10;0.10;;;;;;;;;;5072316;28;20032;-84
2021/05/24 04:42:55;;;;;;;0.10;0.10;;;;;;;;;;5071271;28;20044;-84
2021/05/24 04:45:21;;;;;;;0.10;0.10;;;;;;;;;;5071002;28;20036;-84
2021/05/24 04:47:48;;;;;;;0.10;0.10;;;;;;;;;;5037744;28;20345;-84
2021/05/24 04:50:14;;;;;;;0.10;0.10;;;;;;;;;;5072196;28;20336;-82
2021/05/24 04:52:40;;;;;;;0.10;0.10;;;;;;;;;;5072116;28;20032;-82
2021/05/24 04:55:06;;;;;;;0.10;0.10;;;;;;;;;;5054161;28;20067;-83
2021/05/24 04:57:32;;;;;;;0.20;0.20;;;;;;;;;;5053997;28;20041;-83
2021/05/24 04:59:58;;;;;;;0.10;0.10;;;;;;;;;;5070985;28;20041;-83
2021/05/24 05:02:24;;;;;;;0.10;0.10;;;;;;;;;;5054196;28;20446;-83
2021/05/24 05:04:50;;;;;;;0.10;0.10;;;;;;;;;;5070870;28;20047;-83
2021/05/24 05:07:16;;;;;;;0.10;0.10;;;;;;;;;;5054101;28;20469;-83
2021/05/24 05:09:42;;;;;;;0.10;0.10;;;;;;;;;;5071903;28;20071;-83
2021/05/24 05:12:08;;;;;;;0.10;0.10;;;;;;;;;;5070820;28;20047;-83
2021/05/24 05:14:34;;;;;;;0.10;0.10;;;;;;;;;;5070741;28;20040;-83
2021/05/24 05:17:00;;;;;;;0.10;0.10;;;;;;;;;;5072177;28;20036;-83
2021/05/24 05:19:28;;;;;;;0.10;0.10;;;;;;;;;;5054335;28;20475;-83
2021/05/24 05:21:54;;;;;;;0.10;0.10;;;;;;;;;;5070642;28;20063;-84
2021/05/24 05:24:20;;;;;;;0.10;0.10;;;;;;;;;;5070540;28;20041;-82
2021/05/24 05:26:46;;;;;;;0.10;0.10;;;;;;;;;;5070807;28;20480;-82
2021/05/24 05:29:12;;;;;;;0.10;0.10;;;;;;;;;;5054101;28;20040;-82
2021/05/24 05:31:38;;;;;;;0.10;0.10;;;;;;;;;;5053983;28;20479;-82
2021/05/24 05:34:05;;;;;;;0.10;0.10;;;;;;;;;;5070577;28;20465;-81
2021/05/24 05:36:31;;;;;;;0.10;0.10;;;;;;;;;;5070481;28;20041;-82
2021/05/24 05:38:57;;;;;;;0.10;0.10;;;;;;;;;;5071412;28;20049;-82
2021/05/24 05:41:23;;;;;;;0.10;0.10;;;;;;;;;;5071687;28;20068;-83
2021/05/24 05:43:49;;;;;;;0.10;0.10;;;;;;;;;;5070487;28;20215;-82
2021/05/24 05:46:15;;;;;;;0.10;0.10;;;;;;;;;;5071641;28;20216;-82
2021/05/24 05:48:41;;;;;;;0.10;0.10;;;;;;;;;;5070499;28;20185;-82
2021/05/24 05:51:09;;;;;;;0.10;0.10;;;;;;;;;;5070372;28;20184;-82
2021/05/24 05:53:36;;;;;;;0.10;0.10;;;;;;;;;;5070419;28;20111;-81
2021/05/24 05:56:02;;;;;;;0.10;0.10;;;;;;;;;;5070529;28;20037;-83
2021/05/24 05:58:28;;;;;;;0.10;0.10;;;;;;;;;;5071407;28;20032;-84
2021/05/24 06:00:54;;;;;;;0.10;0.10;;;;;;;;;;5070670;28;20040;-85
2021/05/24 06:03:20;;;;;;;0.10;0.10;;;;;;;;;;5053652;28;20037;-83
2021/05/24 06:05:46;;;;;;;0.10;0.10;;;;;;;;;;5070235;28;20507;-83
2021/05/24 06:08:12;;;;;;;0.10;0.10;;;;;;;;;;5071390;28;20039;-86
2021/05/24 06:10:38;;;;;;;0.10;0.10;;;;;;;;;;5073632;28;20041;-85
2021/05/24 06:13:04;;;;;;;0.10;0.10;;;;;;;;;;5073873;28;20032;-84
2021/05/24 06:15:30;;;;;;;0.10;0.10;;;;;;;;;;5074855;28;20040;-83
2021/05/24 06:17:56;;;;;;;0.10;0.10;;;;;;;;;;5073539;28;20032;-82
2021/05/24 06:20:23;;;;;;;0.10;0.10;;;;;;;;;;5073726;28;20088;-83
2021/05/24 06:22:50;;;;;;;0.10;0.10;;;;;;;;;;5074781;28;20102;-83
2021/05/24 06:25:16;;;;;;;0.10;0.10;;;;;;;;;;5073281;28;20032;-83
2021/05/24 06:27:42;;;;;;;0.10;0.10;;;;;;;;;;5073405;28;20048;-83
2021/05/24 06:30:09;;;;;;;0.10;0.10;;;;;;;;;;5073652;28;20484;-82
2021/05/24 06:32:35;;;;;;;0.10;0.10;;;;;;;;;;5059463;28;20041;-82
2021/05/24 06:35:01;;;;;;;0.10;0.10;;;;;;;;;;5057580;28;20033;-82
2021/05/24 06:37:27;;;;;;;0.10;0.10;;;;;;;;;;5072305;28;20056;-82
2021/05/24 06:39:53;;;;;;;0.10;0.10;;;;;;;;;;5074295;28;20048;-82
2021/05/24 06:42:20;;;;;;;0.10;0.10;;;;;;;;;;5074399;28;20068;-82
2021/05/24 06:44:46;;;;;;;0.10;0.10;;;;;;;;;;5073065;28;20040;-81
2021/05/24 06:47:12;;;;;;;0.20;0.20;;;;;;;;;;5072766;28;20045;-81
2021/05/24 06:49:38;;;;;;;0.10;0.10;;;;;;;;;;5089696;28;20112;-82
2021/05/24 06:52:04;;;;;;;0.10;0.10;;;;;;;;;;5089814;28;20064;-81
2021/05/24 06:54:31;;;;;;;0.10;0.10;;;;;;;;;;5074152;28;20037;-82
2021/05/24 06:56:57;;;;;;;0.10;0.10;;;;;;;;;;5072810;28;20182;-86
2021/05/24 06:59:23;;;;;;;0.10;0.10;;;;;;;;;;5089624;28;20036;-82
2021/05/24 07:01:49;;;;;;;0.10;0.10;;;;;;;;;;5072778;28;20028;-82
2021/05/24 07:04:15;;;;;;;0.10;0.10;;;;;;;;;;5072526;28;20109;-82
2021/05/24 07:06:41;;;;;;;0.20;0.20;;;;;;;;;;5089423;28;20048;-81
2021/05/24 07:09:07;;;;;;;0.10;0.10;;;;;;;;;;5074074;28;20037;-82
2021/05/24 07:11:33;;;;;;;0.10;0.10;;;;;;;;;;5089558;28;20059;-82
2021/05/24 07:13:59;;;;;;;0.10;0.10;;;;;;;;;;5073732;28;20463;-82
2021/05/24 07:16:25;;;;;;;0.20;0.20;;;;;;;;;;5073642;28;20068;-82
2021/05/24 07:18:51;;;;;;;0.10;0.10;;;;;;;;;;5089272;28;20165;-82
2021/05/24 07:21:18;;;;;;;0.10;0.10;;;;;;;;;;5073495;28;20040;-82
2021/05/24 07:23:44;;;;;;;0.10;0.10;;;;;;;;;;5088150;28;20040;-82
2021/05/24 07:26:10;;;;;;;0.28;0.25;;;;;;;;;;5072165;28;20434;-82
2021/05/24 07:28:36;;;;;;;0.13;0.13;;;;;;;;;;5072102;28;20044;-82
2021/05/24 07:31:02;;;;;;;0.10;0.10;;;;;;;;;;5073319;28;20040;-82
2021/05/24 07:33:28;;;;;;;0.10;0.10;;;;;;;;;;5069966;28;20033;-82
2021/05/24 07:35:55;;;;;;;0.10;0.10;;;;;;;;;;5065163;28;20127;-82
2021/05/24 07:38:21;;;;;;;0.10;0.10;;;;;;;;;;5073069;28;20052;-81
2021/05/24 07:40:47;;;;;;;0.10;0.10;;;;;;;;;;5071919;28;20101;-82
2021/05/24 07:43:13;;;;;;;0.10;0.10;;;;;;;;;;5073088;28;20033;-82
2021/05/24 07:45:42;;;;;;;0.10;0.10;;;;;;;;;;5073029;28;20498;-83
2021/05/24 07:48:08;;;;;;;0.10;0.10;;;;;;;;;;5073251;28;20044;-82
2021/05/24 07:50:34;;;;;;;0.10;0.10;;;;;;;;;;5073030;28;20063;-82
2021/05/24 07:53:00;;;;;;;0.10;0.10;;;;;;;;;;5073035;28;20063;-82
2021/05/24 07:55:26;;;;;;;0.10;0.10;;;;;;;;;;5072870;28;20040;-82
2021/05/24 07:57:52;;;;;;;0.10;0.10;;;;;;;;;;5071645;28;20037;-83
2021/05/24 08:00:19;;;;;;;0.10;0.10;;;;;;;;;;5072602;28;20184;-84
2021/05/24 08:02:45;;;;;;;0.10;0.10;;;;;;;;;;5071391;28;20040;-84
2021/05/24 08:05:12;;;;;;;0.10;0.10;;;;;;;;;;5071224;28;20036;-83
2021/05/24 08:07:38;;;;;;;0.10;0.10;;;;;;;;;;5071088;28;20040;-84
2021/05/24 08:10:04;;;;;;;0.20;0.20;;;;;;;;;;5072496;28;20087;-84
2021/05/24 08:12:30;;;;;;;0.28;0.28;;;;;;;;;;5054652;28;20044;-83
2021/05/24 08:14:56;;;;;;;0.10;0.10;;;;;;;;;;5071231;28;20042;-84
2021/05/24 08:17:22;;;;;;;0.10;0.10;;;;;;;;;;5072285;28;20193;-85
2021/05/24 08:19:48;;;;;;;0.10;0.10;;;;;;;;;;5071002;28;20043;-84
2021/05/24 08:22:15;;;;;;;0.10;0.10;;;;;;;;;;5072023;28;20496;-83
2021/05/24 08:24:41;;;;;;;0.10;0.10;;;;;;;;;;5070676;28;20399;-83
2021/05/24 08:27:07;;;;;;;0.10;0.10;;;;;;;;;;5070974;28;20044;-81
2021/05/24 08:29:33;;;;;;;0.10;0.10;;;;;;;;;;5070940;28;20042;-82
2021/05/24 08:31:59;;;;;;;0.20;0.20;;;;;;;;;;5070523;28;20111;-82
2021/05/24 08:34:25;;;;;;;0.10;0.10;;;;;;;;;;5071149;28;20045;-84
2021/05/24 08:36:51;;;;;;;0.10;0.10;;;;;;;;;;5071004;28;20396;-85
2021/05/24 08:39:17;;;;;;;0.10;0.10;;;;;;;;;;5070949;28;20048;-83
2021/05/24 08:41:43;;;;;;;0.10;0.10;;;;;;;;;;5071141;28;20074;-84
2021/05/24 08:44:09;;;;;;;0.10;0.10;;;;;;;;;;5066944;28;20137;-81
2021/05/24 08:46:36;;;;;;;0.10;0.10;;;;;;;;;;5070878;28;20067;-82
2021/05/24 08:49:04;;;;;;;0.10;0.10;;;;;;;;;;5070884;28;20040;-82
2021/05/24 08:51:30;;;;;;;0.10;0.10;;;;;;;;;;5070480;28;20037;-82
2021/05/24 08:53:56;;;;;;;0.10;0.10;;;;;;;;;;5087281;28;20037;-82
2021/05/24 08:56:22;;;;;;;0.10;0.10;;;;;;;;;;5070874;28;20124;-82
2021/05/24 08:58:48;;;;;;;0.75;0.47;;;;;;;;;;5070702;28;20051;-82
2021/05/24 09:01:14;;;;;;;0.10;0.10;;;;;;;;;;5072187;28;20040;-82
2021/05/24 09:03:42;;;;;;;0.10;0.10;;;;;;;;;;5072153;28;20101;-83
2021/05/24 09:06:10;;;;;;;0.10;0.10;;;;;;;;;;5070508;28;20040;-83
2021/05/24 09:08:40;;;;;;;0.20;0.20;;;;;;;;;;5054264;28;20051;-83
2021/05/24 09:11:06;;;;;;;0.10;0.10;;;;;;;;;;5070616;28;20090;-82
2021/05/24 09:13:33;;;;;;;0.10;0.10;;;;;;;;;;5070821;28;20101;-82
2021/05/24 09:15:59;;;;;;;0.32;0.30;;;;;;;;;;5070070;28;20037;-82
2021/05/24 09:18:25;;;;;;;0.10;0.10;;;;;;;;;;5071743;28;20098;-83
2021/05/24 09:20:51;;;;;;;0.10;0.10;;;;;;;;;;5070758;28;20040;-84
2021/05/24 09:23:25;;;;;;;0.10;0.10;;;;;;;;;;5070576;28;20090;-83
2021/05/24 09:26:13;;;;;;;0.20;0.20;;;;;;;;;;5071599;28;20048;-84
2021/05/24 09:28:39;;;;;;;0.10;0.10;;;;;;;;;;5070550;28;20051;-83
2021/05/24 09:31:10;;;;;;;0.10;0.10;;;;;;;;;;5071708;28;20041;-85
2021/05/24 09:33:36;;;;;;;0.22;0.22;;;;;;;;;;5070809;28;20032;-87
2021/05/24 09:36:03;;;;;;;0.10;0.10;;;;;;;;;;5070267;28;20059;-84
2021/05/24 09:38:33;;;;;;;0.10;0.10;;;;;;;;;;5053580;28;20106;-84
2021/05/24 09:40:59;;;;;;;0.20;0.20;;;;;;;;;;5070464;28;20033;-84
2021/05/24 09:43:31;;;;;;;0.10;0.10;;;;;;;;;;5072297;28;20408;-84
2021/05/24 09:46:06;;;;;;;0.10;0.10;;;;;;;;;;5074161;28;20040;-84
2021/05/24 09:48:32;;;;;;;4.57;0.68;;;;;;;;;;5075369;28;20410;-83
2021/05/24 09:50:58;;;;;;;0.10;0.10;;;;;;;;;;5057434;28;20131;-85
2021/05/24 09:53:24;;;;;;;0.10;0.10;;;;;;;;;;5057453;28;20032;-83
2021/05/24 09:55:50;;;;;;;0.10;0.10;;;;;;;;;;5073998;28;20070;-83
2021/05/24 09:58:17;;;;;;;0.10;0.10;;;;;;;;;;5075134;28;20124;-83
2021/05/24 10:00:48;;;;;;;0.10;0.10;;;;;;;;;;5073976;28;20033;-82
2021/05/24 10:03:15;;;;;;;0.20;0.20;;;;;;;;;;5074989;28;20400;-82
2021/05/24 10:05:48;;;;;;;0.10;0.10;;;;;;;;;;5074825;28;20131;-82
2021/05/24 10:08:15;;;;;;;0.10;0.10;;;;;;;;;;5074760;28;20043;-81
2021/05/24 10:10:41;;;;;;;0.10;0.10;;;;;;;;;;5074856;28;20231;-82
2021/05/24 10:13:07;;;;;;;0.10;0.10;;;;;;;;;;5066939;28;20045;-82
2021/05/24 10:15:36;;;;;;;0.10;0.10;;;;;;;;;;5062588;28;20040;-81
2021/05/24 10:18:02;;;;;;;0.10;0.10;;;;;;;;;;5073359;28;20113;-82
2021/05/24 10:20:31;;;;;;;0.25;0.25;;;;;;;;;;5074756;28;20044;-83
2021/05/24 10:22:57;;;;;;;0.10;0.10;;;;;;;;;;5073591;28;20043;-82
2021/05/24 10:25:24;;;;;;;0.10;0.10;;;;;;;;;;5073303;28;20434;-82
2021/05/24 10:27:51;;;;;;;0.20;0.20;;;;;;;;;;5056840;28;20036;-82
2021/05/24 10:30:17;;;;;;;0.10;0.10;;;;;;;;;;5073121;28;20455;-82
2021/05/24 10:32:56;;;;;;;0.10;0.10;;;;;;;;;;5056289;28;20115;-81
2021/05/24 10:35:32;;;;;;;0.10;0.10;;;;;;;;;;5073816;28;20476;-82
2021/05/24 10:37:59;;;;;;;0.10;0.10;;;;;;;;;;5072834;28;20057;-83
2021/05/24 10:40:25;;;;;;;0.10;0.10;;;;;;;;;;5073072;28;20037;-83
2021/05/24 10:42:52;;;;;;;0.10;0.10;;;;;;;;;;5072825;28;20040;-83
2021/05/24 10:45:22;;;;;;;0.10;0.10;;;;;;;;;;5056213;28;20037;-83
2021/05/24 10:48:01;;;;;;;0.10;0.10;;;;;;;;;;5072857;28;20090;-85
2021/05/24 10:50:29;;;;;;;0.10;0.10;;;;;;;;;;5066658;28;20101;-84
2021/05/24 10:53:02;;;;;;;0.10;0.10;;;;;;;;;;5055608;28;20037;-83
2021/05/24 10:55:28;;;;;;;0.10;0.10;;;;;;;;;;5071231;28;20051;-83
2021/05/24 10:57:56;;;;;;;0.10;0.10;;;;;;;;;;5073675;28;20033;-83
2021/05/24 11:00:22;;;;;;;0.10;0.10;;;;;;;;;;5088958;28;20064;-83
2021/05/24 11:02:55;;;;;;;0.10;0.10;;;;;;;;;;5072551;28;20041;-83
2021/05/24 11:05:22;;;;;;;0.10;0.10;;;;;;;;;;5055717;28;20040;-83
2021/05/24 11:07:49;;;;;;;0.10;0.10;;;;;;;;;;5073595;28;20404;-84
2021/05/24 11:10:18;;;;;;;0.20;0.20;;;;;;;;;;5072083;28;20040;-83
2021/05/24 11:13:13;;;;;;;0.10;0.10;;;;;;;;;;5073369;28;20048;-84
2021/05/24 11:15:43;;;;;;;0.10;0.10;;;;;;;;;;5063580;28;20081;-84
2021/05/24 11:18:09;;;;;;;0.20;0.20;;;;;;;;;;5055510;28;20068;-84
2021/05/24 11:20:51;;;;;;;0.10;0.10;;;;;;;;;;5073339;28;20495;-84
2021/05/24 11:26:13;;;;;;;0.10;0.10;;;;;;;;;;5072447;28;20041;-88
2021/05/24 11:28:42;;;;;;;0.10;0.10;;;;;;;;;;5072194;28;20071;-87
2021/05/24 11:31:11;;;;;;;0.10;0.10;;;;;;;;;;5073351;28;20530;-85
2021/05/24 11:33:38;;;;;;;0.28;0.28;;;;;;;;;;5073296;28;20033;-84
2021/05/24 11:36:05;;;;;;;0.10;0.10;;;;;;;;;;5072028;28;20488;-85
2021/05/24 11:38:31;;;;;;;0.10;0.10;;;;;;;;;;5055180;28;20212;-83
2021/05/24 11:41:10;;;;;;;0.10;0.10;;;;;;;;;;5072066;28;20040;-83
2021/05/24 11:43:38;;;;;;;0.10;0.10;;;;;;;;;;5071364;28;20432;-84
2021/05/24 11:46:05;;;;;;;0.10;0.10;;;;;;;;;;5055585;28;20048;-84
2021/05/24 11:48:37;;;;;;;0.10;0.10;;;;;;;;;;5072983;28;20068;-85
2021/05/24 11:51:04;;;;;;;0.10;0.10;;;;;;;;;;5055345;28;20119;-84
2021/05/24 11:53:30;;;;;;;0.10;0.10;;;;;;;;;;5072984;28;20059;-85
2021/05/24 11:56:09;;;;;;;0.20;0.20;;;;;;;;;;5071733;28;20056;-84
2021/05/24 11:58:54;;;;;;;0.10;0.10;;;;;;;;;;5072869;28;20048;-85
2021/05/24 12:01:20;;;;;;;0.10;0.10;;;;;;;;;;5073016;28;20068;-84
2021/05/24 12:03:49;;;;;;;0.10;0.10;;;;;;;;;;5055064;28;20514;-84
2021/05/24 12:06:16;;;;;;;0.10;0.10;;;;;;;;;;5053957;28;20044;-84
2021/05/24 12:08:42;;;;;;;0.10;0.10;;;;;;;;;;5071544;28;20409;-84
2021/05/24 12:11:09;;;;;;;0.10;0.10;;;;;;;;;;5071465;28;20044;-84
2021/05/24 12:13:53;;;;;;;0.15;0.15;;;;;;;;;;5071691;28;20037;-85
2021/05/24 12:16:19;;;;;;;0.10;0.10;;;;;;;;;;5072779;28;20048;-85
2021/05/24 12:18:58;;;;;;;0.10;0.10;;;;;;;;;;5072509;28;20090;-84
2021/05/24 12:21:31;;;;;;;0.10;0.10;;;;;;;;;;5071461;28;20033;-85
2021/05/24 12:23:59;;;;;;;0.20;0.20;;;;;;;;;;5071002;28;20036;-84
2021/05/24 12:26:27;;;;;;;0.10;0.10;;;;;;;;;;5072352;28;20044;-85
2021/05/24 12:28:53;;;;;;;0.10;0.10;;;;;;;;;;5054838;28;20041;-84
2021/05/24 12:31:19;;;;;;;0.20;0.20;;;;;;;;;;5054594;28;20040;-84
2021/05/24 12:33:45;;;;;;;0.10;0.10;;;;;;;;;;5072346;28;20043;-83
2021/05/24 12:36:11;;;;;;;0.10;0.10;;;;;;;;;;5054571;28;20040;-84
2021/05/24 12:38:49;;;;;;;0.10;0.10;;;;;;;;;;5070944;28;20049;-84
2021/05/24 12:41:17;;;;;;;0.10;0.10;;;;;;;;;;5055963;28;20109;-84
2021/05/24 12:43:50;;;;;;;0.10;0.10;;;;;;;;;;5054657;28;20068;-85
2021/05/24 12:46:19;;;;;;;0.10;0.10;;;;;;;;;;5072030;28;20044;-84
2021/05/24 12:48:50;;;;;;;0.10;0.10;;;;;;;;;;5072212;28;20047;-84
2021/05/24 12:51:17;;;;;;;0.10;0.10;;;;;;;;;;5071071;28;20480;-85
2021/05/24 12:53:50;;;;;;;0.10;0.10;;;;;;;;;;5071065;28;20539;-85
2021/05/24 12:56:16;;;;;;;0.10;0.10;;;;;;;;;;5070743;28;20232;-85
2021/05/24 12:58:42;;;;;;;0.10;0.10;;;;;;;;;;5070899;28;20033;-85
2021/05/24 13:01:09;;;;;;;0.20;0.20;;;;;;;;;;5070850;28;20033;-85
2021/05/24 13:03:52;;;;;;;0.10;0.10;;;;;;;;;;5070780;28;20170;-85
2021/05/24 13:06:18;;;;;;;0.10;0.10;;;;;;;;;;5070777;28;20049;-86
2021/05/24 13:08:51;;;;;;;0.10;0.10;;;;;;;;;;5070640;28;20045;-85
2021/05/24 13:11:18;;;;;;;0.20;0.20;;;;;;;;;;5054233;28;20430;-85
2021/05/24 13:13:44;;;;;;;0.10;0.10;;;;;;;;;;5071940;28;20036;-85
2021/05/24 13:16:31;;;;;;;0.10;0.10;;;;;;;;;;5070732;28;20040;-85
2021/05/24 13:24:54;;;;;;;0.10;0.10;;;;;;;;;;5074877;28;20310;-85
2021/05/24 13:28:06;;;;;;;0.10;0.10;;;;;;;;;;5074544;28;20036;-85
2021/05/24 13:30:34;;;;;;;0.10;0.10;;;;;;;;;;5075752;28;20029;-85
2021/05/24 13:33:00;;;;;;;0.10;0.10;;;;;;;;;;5074484;28;20038;-85
2021/05/24 13:35:26;;;;;;;0.10;0.10;;;;;;;;;;5074669;28;20040;-85
2021/05/24 13:37:52;;;;;;;0.10;0.10;;;;;;;;;;5074012;28;20115;-85
2021/05/24 13:40:19;;;;;;;0.10;0.10;;;;;;;;;;5057716;28;20040;-85
2021/05/24 13:42:46;;;;;;;0.10;0.10;;;;;;;;;;5057641;28;20045;-85
2021/05/24 13:45:13;;;;;;;0.10;0.10;;;;;;;;;;5074183;28;20442;-85
2021/05/24 13:47:42;;;;;;;0.10;0.10;;;;;;;;;;5057574;28;20075;-86
2021/05/24 13:50:08;;;;;;;0.10;0.10;;;;;;;;;;5057895;28;20036;-84
2021/05/24 13:52:34;;;;;;;0.10;0.10;;;;;;;;;;5057482;28;20041;-85
2021/05/24 13:55:00;;;;;;;0.22;0.22;;;;;;;;;;5074241;28;20046;-86
2021/05/24 13:57:26;;;;;;;0.10;0.10;;;;;;;;;;5074169;28;20063;-85
2021/05/24 13:59:52;;;;;;;0.10;0.10;;;;;;;;;;5075267;28;20032;-86
2021/05/24 14:02:18;;;;;;;0.15;0.15;;;;;;;;;;5075142;28;20395;-85
2021/05/24 14:04:44;;;;;;;0.22;0.13;;;;;;;;;;5057217;28;20037;-85
2021/05/24 14:07:10;;;;;;;0.10;0.10;;;;;;;;;;5073717;28;20047;-85
2021/05/24 14:09:38;;;;;;;0.17;0.17;;;;;;;;;;5057326;28;20387;-86
2021/05/24 14:12:04;;;;;;;0.10;0.10;;;;;;;;;;5057449;28;20216;-85
2021/05/24 14:14:30;;;;;;;0.10;0.10;;;;;;;;;;5073815;28;20119;-85
2021/05/24 14:16:56;;;;;;;0.10;0.10;;;;;;;;;;5057206;28;20142;-85
2021/05/24 14:19:22;;;;;;;0.10;0.10;;;;;;;;;;5074805;28;20120;-84
2021/05/24 14:21:48;;;;;;;0.10;0.10;;;;;;;;;;5073601;28;20048;-85
2021/05/24 14:24:14;;;;;;;0.20;0.20;;;;;;;;;;5073497;28;20036;-85
2021/05/24 14:26:40;;;;;;;0.20;0.20;;;;;;;;;;5056849;28;20182;-85
2021/05/24 14:29:08;;;;;;;0.10;0.10;;;;;;;;;;5072695;28;20446;-85
2021/05/24 14:31:34;;;;;;;0.10;0.10;;;;;;;;;;5073260;28;20037;-85
2021/05/24 14:34:00;;;;;;;0.10;0.10;;;;;;;;;;5074657;28;20040;-84
2021/05/24 14:36:26;;;;;;;0.10;0.10;;;;;;;;;;5073361;28;20043;-85
2021/05/24 14:38:52;;;;;;;0.10;0.10;;;;;;;;;;5073148;28;20155;-85
2021/05/24 14:41:18;;;;;;;0.10;0.10;;;;;;;;;;5073290;28;20064;-85
2021/05/24 14:43:44;;;;;;;0.30;0.20;;;;;;;;;;5073318;28;20212;-85
2021/05/24 14:46:10;;;;;;;0.10;0.10;;;;;;;;;;5056353;28;20080;-85
2021/05/24 14:48:36;;;;;;;0.10;0.10;;;;;;;;;;5073118;28;20430;-85
2021/05/24 14:51:02;;;;;;;0.10;0.10;;;;;;;;;;5073289;28;20048;-85
2021/05/24 14:53:30;;;;;;;0.10;0.10;;;;;;;;;;5074405;28;20081;-85